sensor_id;sensor_type;location;lat;lon;timestamp;P1;durP1;ratioP1;P2;durP2;ratioP2
16770;SDS011;8503;52.472;13.344;2022-08-21T00:01:29;6.03;;;4.72;;
16770;SDS011;8503;52.472;13.344;2022-08-21T00:03:12;5.28;;;4.45;;
16770;SDS011;8503;52.472;13.344;2022-08-21T00:04:55;7.88;;;4.85;;
16770;SDS011;8503;52.472;13.344;2022-08-21T00:06:37;7.38;;;4.57;;
16770;SDS011;8503;52.472;13.344;2022-08-21T00:08:19;9.65;;;4.70;;
16770;SDS011;8503;52.472;13.344;2022-08-21T00:10:01;6.10;;;4.30;;
16770;SDS011;8503;52.472;13.344;2022-08-21T00:11:44;5.10;;;4.15;;
16770;SDS011;8503;52.472;13.344;2022-08-21T00:13:28;6.85;;;4.60;;
16770;SDS011;8503;52.472;13.344;2022-08-21T00:15:12;8.05;;;5.03;;
16770;SDS011;8503;52.472;13.344;2022-08-21T00:16:56;5.90;;;4.47;;
16770;SDS011;8503;52.472;13.344;2022-08-21T00:18:39;5.05;;;4.32;;
16770;SDS011;8503;52.472;13.344;2022-08-21T00:20:22;7.78;;;4.93;;
16770;SDS011;8503;52.472;13.344;2022-08-21T00:22:05;8.20;;;4.65;;
16770;SDS011;8503;52.472;13.344;2022-08-21T00:23:47;12.88;;;4.60;;
16770;SDS011;8503;52.472;13.344;2022-08-21T00:25:29;7.03;;;4.43;;
16770;SDS011;8503;52.472;13.344;2022-08-21T00:27:12;7.53;;;4.90;;
16770;SDS011;8503;52.472;13.344;2022-08-21T00:28:56;7.95;;;4.63;;
16770;SDS011;8503;52.472;13.344;2022-08-21T00:30:39;5.88;;;4.47;;
16770;SDS011;8503;52.472;13.344;2022-08-21T00:32:22;14.30;;;5.65;;
16770;SDS011;8503;52.472;13.344;2022-08-21T00:34:06;9.15;;;4.93;;
16770;SDS011;8503;52.472;13.344;2022-08-21T00:35:48;6.65;;;4.38;;
16770;SDS011;8503;52.472;13.344;2022-08-21T00:37:31;6.07;;;4.18;;
16770;SDS011;8503;52.472;13.344;2022-08-21T00:39:14;7.43;;;4.75;;
16770;SDS011;8503;52.472;13.344;2022-08-21T00:40:57;5.22;;;4.28;;
16770;SDS011;8503;52.472;13.344;2022-08-21T00:43:01;6.53;;;4.57;;
16770;SDS011;8503;52.472;13.344;2022-08-21T00:44:47;5.70;;;3.85;;
16770;SDS011;8503;52.472;13.344;2022-08-21T00:46:30;6.43;;;4.57;;
16770;SDS011;8503;52.472;13.344;2022-08-21T00:48:12;6.30;;;4.25;;
16770;SDS011;8503;52.472;13.344;2022-08-21T00:49:54;6.95;;;4.57;;
16770;SDS011;8503;52.472;13.344;2022-08-21T00:51:38;5.15;;;4.50;;
16770;SDS011;8503;52.472;13.344;2022-08-21T00:53:22;7.60;;;4.90;;
16770;SDS011;8503;52.472;13.344;2022-08-21T00:55:05;9.98;;;4.65;;
16770;SDS011;8503;52.472;13.344;2022-08-21T00:56:50;8.23;;;4.70;;
16770;SDS011;8503;52.472;13.344;2022-08-21T00:58:34;9.00;;;4.80;;
16770;SDS011;8503;52.472;13.344;2022-08-21T01:00:21;8.73;;;5.40;;
16770;SDS011;8503;52.472;13.344;2022-08-21T01:02:06;8.65;;;5.15;;
16770;SDS011;8503;52.472;13.344;2022-08-21T01:03:48;12.40;;;5.53;;
16770;SDS011;8503;52.472;13.344;2022-08-21T01:05:32;6.95;;;5.45;;
16770;SDS011;8503;52.472;13.344;2022-08-21T01:07:14;8.65;;;5.28;;
16770;SDS011;8503;52.472;13.344;2022-08-21T01:08:58;8.48;;;5.70;;
16770;SDS011;8503;52.472;13.344;2022-08-21T01:10:40;11.27;;;5.53;;
16770;SDS011;8503;52.472;13.344;2022-08-21T01:12:24;9.05;;;6.43;;
16770;SDS011;8503;52.472;13.344;2022-08-21T01:14:06;7.80;;;5.35;;
16770;SDS011;8503;52.472;13.344;2022-08-21T01:15:52;9.43;;;4.70;;
16770;SDS011;8503;52.472;13.344;2022-08-21T01:17:35;6.55;;;4.72;;
16770;SDS011;8503;52.472;13.344;2022-08-21T01:19:18;9.25;;;5.15;;
16770;SDS011;8503;52.472;13.344;2022-08-21T01:21:03;9.43;;;5.25;;
16770;SDS011;8503;52.472;13.344;2022-08-21T01:22:47;7.32;;;5.13;;
16770;SDS011;8503;52.472;13.344;2022-08-21T01:24:30;10.93;;;5.40;;
16770;SDS011;8503;52.472;13.344;2022-08-21T01:26:13;9.00;;;5.13;;
16770;SDS011;8503;52.472;13.344;2022-08-21T01:27:57;7.38;;;5.55;;
16770;SDS011;8503;52.472;13.344;2022-08-21T01:29:44;9.65;;;5.60;;
16770;SDS011;8503;52.472;13.344;2022-08-21T01:31:29;7.10;;;5.28;;
16770;SDS011;8503;52.472;13.344;2022-08-21T01:33:12;6.90;;;5.40;;
16770;SDS011;8503;52.472;13.344;2022-08-21T01:34:54;8.88;;;5.53;;
16770;SDS011;8503;52.472;13.344;2022-08-21T01:36:38;7.38;;;5.20;;
16770;SDS011;8503;52.472;13.344;2022-08-21T01:38:21;6.82;;;5.22;;
16770;SDS011;8503;52.472;13.344;2022-08-21T01:40:07;5.95;;;5.05;;
16770;SDS011;8503;52.472;13.344;2022-08-21T01:41:50;13.68;;;5.45;;
16770;SDS011;8503;52.472;13.344;2022-08-21T01:43:32;5.70;;;4.90;;
16770;SDS011;8503;52.472;13.344;2022-08-21T01:45:19;9.75;;;5.38;;
16770;SDS011;8503;52.472;13.344;2022-08-21T01:47:02;6.35;;;4.57;;
16770;SDS011;8503;52.472;13.344;2022-08-21T01:48:46;8.63;;;4.88;;
16770;SDS011;8503;52.472;13.344;2022-08-21T01:50:28;8.40;;;4.45;;
16770;SDS011;8503;52.472;13.344;2022-08-21T01:52:11;8.32;;;4.43;;
16770;SDS011;8503;52.472;13.344;2022-08-21T01:53:53;7.65;;;4.60;;
16770;SDS011;8503;52.472;13.344;2022-08-21T01:55:35;6.65;;;4.10;;
16770;SDS011;8503;52.472;13.344;2022-08-21T01:57:18;6.53;;;4.60;;
16770;SDS011;8503;52.472;13.344;2022-08-21T01:59:00;6.15;;;4.70;;
16770;SDS011;8503;52.472;13.344;2022-08-21T02:00:42;9.73;;;3.88;;
16770;SDS011;8503;52.472;13.344;2022-08-21T02:02:24;11.63;;;4.03;;
16770;SDS011;8503;52.472;13.344;2022-08-21T02:04:07;6.60;;;3.97;;
16770;SDS011;8503;52.472;13.344;2022-08-21T02:05:50;7.30;;;3.88;;
16770;SDS011;8503;52.472;13.344;2022-08-21T02:07:36;6.93;;;3.80;;
16770;SDS011;8503;52.472;13.344;2022-08-21T02:09:19;4.45;;;2.67;;
16770;SDS011;8503;52.472;13.344;2022-08-21T02:11:03;3.10;;;2.72;;
16770;SDS011;8503;52.472;13.344;2022-08-21T02:12:45;7.45;;;2.90;;
16770;SDS011;8503;52.472;13.344;2022-08-21T02:14:28;4.85;;;3.28;;
16770;SDS011;8503;52.472;13.344;2022-08-21T02:16:12;5.32;;;3.40;;
16770;SDS011;8503;52.472;13.344;2022-08-21T02:17:59;5.93;;;3.05;;
16770;SDS011;8503;52.472;13.344;2022-08-21T02:19:42;5.05;;;2.85;;
16770;SDS011;8503;52.472;13.344;2022-08-21T02:21:24;3.88;;;3.47;;
16770;SDS011;8503;52.472;13.344;2022-08-21T02:23:09;7.32;;;3.28;;
16770;SDS011;8503;52.472;13.344;2022-08-21T02:24:52;8.23;;;2.83;;
16770;SDS011;8503;52.472;13.344;2022-08-21T02:26:34;11.85;;;3.28;;
16770;SDS011;8503;52.472;13.344;2022-08-21T02:28:16;3.88;;;2.50;;
16770;SDS011;8503;52.472;13.344;2022-08-21T02:29:59;7.53;;;3.15;;
16770;SDS011;8503;52.472;13.344;2022-08-21T02:31:41;7.47;;;2.67;;
16770;SDS011;8503;52.472;13.344;2022-08-21T02:33:23;4.60;;;2.75;;
16770;SDS011;8503;52.472;13.344;2022-08-21T02:35:07;3.70;;;2.55;;
16770;SDS011;8503;52.472;13.344;2022-08-21T02:36:50;6.63;;;3.40;;
16770;SDS011;8503;52.472;13.344;2022-08-21T02:38:40;7.18;;;2.80;;
16770;SDS011;8503;52.472;13.344;2022-08-21T02:40:24;5.78;;;2.60;;
16770;SDS011;8503;52.472;13.344;2022-08-21T02:42:06;5.28;;;2.88;;
16770;SDS011;8503;52.472;13.344;2022-08-21T02:43:48;7.60;;;2.90;;
16770;SDS011;8503;52.472;13.344;2022-08-21T02:45:31;7.25;;;3.40;;
16770;SDS011;8503;52.472;13.344;2022-08-21T02:47:14;5.60;;;2.80;;
16770;SDS011;8503;52.472;13.344;2022-08-21T02:48:56;6.28;;;3.03;;
16770;SDS011;8503;52.472;13.344;2022-08-21T02:50:39;8.68;;;3.08;;
16770;SDS011;8503;52.472;13.344;2022-08-21T02:52:24;4.80;;;3.10;;
16770;SDS011;8503;52.472;13.344;2022-08-21T02:54:08;4.97;;;3.03;;
16770;SDS011;8503;52.472;13.344;2022-08-21T02:55:50;5.30;;;3.30;;
16770;SDS011;8503;52.472;13.344;2022-08-21T02:57:33;4.93;;;2.88;;
16770;SDS011;8503;52.472;13.344;2022-08-21T02:59:15;6.65;;;2.90;;
16770;SDS011;8503;52.472;13.344;2022-08-21T03:00:57;6.85;;;2.90;;
16770;SDS011;8503;52.472;13.344;2022-08-21T03:02:39;7.70;;;3.30;;
16770;SDS011;8503;52.472;13.344;2022-08-21T03:04:21;6.78;;;2.97;;
16770;SDS011;8503;52.472;13.344;2022-08-21T03:06:04;6.35;;;2.72;;
16770;SDS011;8503;52.472;13.344;2022-08-21T03:07:47;4.05;;;2.50;;
16770;SDS011;8503;52.472;13.344;2022-08-21T03:09:31;4.60;;;2.58;;
16770;SDS011;8503;52.472;13.344;2022-08-21T03:11:13;3.38;;;2.90;;
16770;SDS011;8503;52.472;13.344;2022-08-21T03:12:56;3.40;;;2.53;;
16770;SDS011;8503;52.472;13.344;2022-08-21T03:14:39;4.18;;;2.58;;
16770;SDS011;8503;52.472;13.344;2022-08-21T03:16:21;3.50;;;2.67;;
16770;SDS011;8503;52.472;13.344;2022-08-21T03:18:03;6.20;;;2.70;;
16770;SDS011;8503;52.472;13.344;2022-08-21T03:19:46;4.20;;;3.08;;
16770;SDS011;8503;52.472;13.344;2022-08-21T03:21:31;5.15;;;2.75;;
16770;SDS011;8503;52.472;13.344;2022-08-21T03:23:14;10.50;;;2.47;;
16770;SDS011;8503;52.472;13.344;2022-08-21T03:25:00;7.53;;;2.65;;
16770;SDS011;8503;52.472;13.344;2022-08-21T03:26:45;5.38;;;2.60;;
16770;SDS011;8503;52.472;13.344;2022-08-21T03:28:29;10.13;;;3.00;;
16770;SDS011;8503;52.472;13.344;2022-08-21T03:30:11;7.55;;;2.97;;
16770;SDS011;8503;52.472;13.344;2022-08-21T03:31:54;5.55;;;2.30;;
16770;SDS011;8503;52.472;13.344;2022-08-21T03:33:36;3.78;;;2.33;;
16770;SDS011;8503;52.472;13.344;2022-08-21T03:35:19;6.78;;;2.58;;
16770;SDS011;8503;52.472;13.344;2022-08-21T03:37:00;3.65;;;2.00;;
16770;SDS011;8503;52.472;13.344;2022-08-21T03:38:42;4.65;;;2.35;;
16770;SDS011;8503;52.472;13.344;2022-08-21T03:40:26;5.13;;;2.58;;
16770;SDS011;8503;52.472;13.344;2022-08-21T03:42:08;8.45;;;2.75;;
16770;SDS011;8503;52.472;13.344;2022-08-21T03:43:51;4.63;;;2.22;;
16770;SDS011;8503;52.472;13.344;2022-08-21T03:45:33;4.63;;;2.25;;
16770;SDS011;8503;52.472;13.344;2022-08-21T03:47:15;6.22;;;2.83;;
16770;SDS011;8503;52.472;13.344;2022-08-21T03:48:57;4.72;;;2.35;;
16770;SDS011;8503;52.472;13.344;2022-08-21T03:50:41;7.22;;;2.45;;
16770;SDS011;8503;52.472;13.344;2022-08-21T03:52:24;5.90;;;2.80;;
16770;SDS011;8503;52.472;13.344;2022-08-21T03:54:06;4.57;;;2.55;;
16770;SDS011;8503;52.472;13.344;2022-08-21T03:55:50;5.20;;;2.25;;
16770;SDS011;8503;52.472;13.344;2022-08-21T03:57:33;13.13;;;2.38;;
16770;SDS011;8503;52.472;13.344;2022-08-21T03:59:15;6.90;;;2.70;;
16770;SDS011;8503;52.472;13.344;2022-08-21T04:00:58;6.13;;;2.45;;
16770;SDS011;8503;52.472;13.344;2022-08-21T04:02:41;5.10;;;2.17;;
16770;SDS011;8503;52.472;13.344;2022-08-21T04:04:23;5.07;;;2.58;;
16770;SDS011;8503;52.472;13.344;2022-08-21T04:06:06;3.15;;;2.05;;
16770;SDS011;8503;52.472;13.344;2022-08-21T04:07:49;7.20;;;2.90;;
16770;SDS011;8503;52.472;13.344;2022-08-21T04:09:31;4.75;;;2.30;;
16770;SDS011;8503;52.472;13.344;2022-08-21T04:11:15;6.22;;;2.40;;
16770;SDS011;8503;52.472;13.344;2022-08-21T04:12:57;6.10;;;2.10;;
16770;SDS011;8503;52.472;13.344;2022-08-21T04:14:39;5.50;;;2.45;;
16770;SDS011;8503;52.472;13.344;2022-08-21T04:16:22;4.70;;;2.55;;
16770;SDS011;8503;52.472;13.344;2022-08-21T04:18:04;5.85;;;2.25;;
16770;SDS011;8503;52.472;13.344;2022-08-21T04:19:48;10.55;;;2.20;;
16770;SDS011;8503;52.472;13.344;2022-08-21T04:21:32;7.30;;;2.38;;
16770;SDS011;8503;52.472;13.344;2022-08-21T04:23:15;7.53;;;2.35;;
16770;SDS011;8503;52.472;13.344;2022-08-21T04:25:03;6.07;;;2.40;;
16770;SDS011;8503;52.472;13.344;2022-08-21T04:26:48;7.10;;;2.63;;
16770;SDS011;8503;52.472;13.344;2022-08-21T04:28:30;5.45;;;2.03;;
16770;SDS011;8503;52.472;13.344;2022-08-21T04:30:13;7.18;;;2.10;;
16770;SDS011;8503;52.472;13.344;2022-08-21T04:31:56;6.68;;;2.50;;
16770;SDS011;8503;52.472;13.344;2022-08-21T04:33:38;4.20;;;1.95;;
16770;SDS011;8503;52.472;13.344;2022-08-21T04:35:21;5.38;;;2.22;;
16770;SDS011;8503;52.472;13.344;2022-08-21T04:37:04;5.85;;;1.95;;
16770;SDS011;8503;52.472;13.344;2022-08-21T04:38:47;5.30;;;2.35;;
16770;SDS011;8503;52.472;13.344;2022-08-21T04:40:29;6.30;;;2.22;;
16770;SDS011;8503;52.472;13.344;2022-08-21T04:42:12;5.78;;;2.20;;
16770;SDS011;8503;52.472;13.344;2022-08-21T04:43:54;6.05;;;2.13;;
16770;SDS011;8503;52.472;13.344;2022-08-21T04:45:38;7.60;;;2.05;;
16770;SDS011;8503;52.472;13.344;2022-08-21T04:47:22;10.52;;;2.42;;
16770;SDS011;8503;52.472;13.344;2022-08-21T04:49:24;8.38;;;2.03;;
16770;SDS011;8503;52.472;13.344;2022-08-21T04:51:07;5.57;;;2.08;;
16770;SDS011;8503;52.472;13.344;2022-08-21T04:52:52;7.47;;;2.40;;
16770;SDS011;8503;52.472;13.344;2022-08-21T04:54:33;7.53;;;2.20;;
16770;SDS011;8503;52.472;13.344;2022-08-21T04:56:18;3.45;;;1.75;;
16770;SDS011;8503;52.472;13.344;2022-08-21T04:58:04;4.70;;;1.83;;
16770;SDS011;8503;52.472;13.344;2022-08-21T04:59:48;5.53;;;2.00;;
16770;SDS011;8503;52.472;13.344;2022-08-21T05:01:34;9.20;;;2.03;;
16770;SDS011;8503;52.472;13.344;2022-08-21T05:03:17;3.90;;;1.67;;
16770;SDS011;8503;52.472;13.344;2022-08-21T05:05:01;5.90;;;2.05;;
16770;SDS011;8503;52.472;13.344;2022-08-21T05:06:44;4.55;;;2.05;;
16770;SDS011;8503;52.472;13.344;2022-08-21T05:08:28;3.45;;;2.22;;
16770;SDS011;8503;52.472;13.344;2022-08-21T05:10:10;5.45;;;1.60;;
16770;SDS011;8503;52.472;13.344;2022-08-21T05:11:54;7.38;;;2.20;;
16770;SDS011;8503;52.472;13.344;2022-08-21T05:13:37;8.45;;;2.38;;
16770;SDS011;8503;52.472;13.344;2022-08-21T05:15:20;3.90;;;2.10;;
16770;SDS011;8503;52.472;13.344;2022-08-21T05:17:02;5.72;;;1.83;;
16770;SDS011;8503;52.472;13.344;2022-08-21T05:18:45;4.35;;;1.63;;
16770;SDS011;8503;52.472;13.344;2022-08-21T05:20:27;4.32;;;1.70;;
16770;SDS011;8503;52.472;13.344;2022-08-21T05:22:09;5.05;;;2.00;;
16770;SDS011;8503;52.472;13.344;2022-08-21T05:23:51;4.38;;;2.13;;
16770;SDS011;8503;52.472;13.344;2022-08-21T05:25:34;3.88;;;2.13;;
16770;SDS011;8503;52.472;13.344;2022-08-21T05:27:17;4.10;;;1.75;;
16770;SDS011;8503;52.472;13.344;2022-08-21T05:29:03;3.45;;;2.05;;
16770;SDS011;8503;52.472;13.344;2022-08-21T05:30:51;2.95;;;1.85;;
16770;SDS011;8503;52.472;13.344;2022-08-21T05:32:34;6.93;;;2.20;;
16770;SDS011;8503;52.472;13.344;2022-08-21T05:34:18;6.95;;;2.47;;
16770;SDS011;8503;52.472;13.344;2022-08-21T05:36:01;5.57;;;2.38;;
16770;SDS011;8503;52.472;13.344;2022-08-21T05:37:43;6.85;;;2.28;;
16770;SDS011;8503;52.472;13.344;2022-08-21T05:39:25;4.65;;;2.40;;
16770;SDS011;8503;52.472;13.344;2022-08-21T05:41:28;6.95;;;2.40;;
16770;SDS011;8503;52.472;13.344;2022-08-21T05:43:13;5.65;;;2.10;;
16770;SDS011;8503;52.472;13.344;2022-08-21T05:44:57;9.25;;;2.60;;
16770;SDS011;8503;52.472;13.344;2022-08-21T05:46:39;5.25;;;2.03;;
16770;SDS011;8503;52.472;13.344;2022-08-21T05:48:23;5.43;;;2.20;;
16770;SDS011;8503;52.472;13.344;2022-08-21T05:50:05;5.85;;;2.15;;
16770;SDS011;8503;52.472;13.344;2022-08-21T05:51:48;5.53;;;2.17;;
16770;SDS011;8503;52.472;13.344;2022-08-21T05:53:30;3.25;;;1.73;;
16770;SDS011;8503;52.472;13.344;2022-08-21T05:55:13;2.70;;;1.65;;
16770;SDS011;8503;52.472;13.344;2022-08-21T05:56:55;8.90;;;1.88;;
16770;SDS011;8503;52.472;13.344;2022-08-21T05:58:37;4.70;;;1.92;;
16770;SDS011;8503;52.472;13.344;2022-08-21T06:00:21;4.38;;;1.85;;
16770;SDS011;8503;52.472;13.344;2022-08-21T06:02:03;4.50;;;1.60;;
16770;SDS011;8503;52.472;13.344;2022-08-21T06:03:47;4.93;;;1.70;;
16770;SDS011;8503;52.472;13.344;2022-08-21T06:05:30;2.63;;;1.70;;
16770;SDS011;8503;52.472;13.344;2022-08-21T06:07:16;4.97;;;1.83;;
16770;SDS011;8503;52.472;13.344;2022-08-21T06:08:58;5.85;;;1.80;;
16770;SDS011;8503;52.472;13.344;2022-08-21T06:10:40;9.02;;;1.85;;
16770;SDS011;8503;52.472;13.344;2022-08-21T06:12:23;4.55;;;1.75;;
16770;SDS011;8503;52.472;13.344;2022-08-21T06:14:05;6.22;;;1.60;;
16770;SDS011;8503;52.472;13.344;2022-08-21T06:15:49;6.72;;;2.08;;
16770;SDS011;8503;52.472;13.344;2022-08-21T06:17:41;6.53;;;2.20;;
16770;SDS011;8503;52.472;13.344;2022-08-21T06:19:23;4.63;;;1.92;;
16770;SDS011;8503;52.472;13.344;2022-08-21T06:21:06;8.35;;;1.90;;
16770;SDS011;8503;52.472;13.344;2022-08-21T06:22:48;6.18;;;1.67;;
16770;SDS011;8503;52.472;13.344;2022-08-21T06:24:31;4.18;;;1.77;;
16770;SDS011;8503;52.472;13.344;2022-08-21T06:26:13;6.20;;;1.60;;
16770;SDS011;8503;52.472;13.344;2022-08-21T06:28:00;5.18;;;1.50;;
16770;SDS011;8503;52.472;13.344;2022-08-21T06:29:43;7.60;;;1.67;;
16770;SDS011;8503;52.472;13.344;2022-08-21T06:31:27;3.45;;;1.58;;
16770;SDS011;8503;52.472;13.344;2022-08-21T06:33:09;5.53;;;1.70;;
16770;SDS011;8503;52.472;13.344;2022-08-21T06:34:54;7.90;;;1.95;;
16770;SDS011;8503;52.472;13.344;2022-08-21T06:36:36;6.35;;;1.50;;
16770;SDS011;8503;52.472;13.344;2022-08-21T06:38:18;4.00;;;1.50;;
16770;SDS011;8503;52.472;13.344;2022-08-21T06:40:00;2.75;;;1.30;;
16770;SDS011;8503;52.472;13.344;2022-08-21T06:41:44;5.40;;;1.63;;
16770;SDS011;8503;52.472;13.344;2022-08-21T06:43:26;5.88;;;1.60;;
16770;SDS011;8503;52.472;13.344;2022-08-21T06:45:19;4.15;;;1.48;;
16770;SDS011;8503;52.472;13.344;2022-08-21T06:47:03;3.72;;;1.83;;
16770;SDS011;8503;52.472;13.344;2022-08-21T06:48:45;2.47;;;1.58;;
16770;SDS011;8503;52.472;13.344;2022-08-21T06:50:27;6.95;;;1.80;;
16770;SDS011;8503;52.472;13.344;2022-08-21T06:52:10;4.40;;;1.70;;
16770;SDS011;8503;52.472;13.344;2022-08-21T06:53:53;4.57;;;1.67;;
16770;SDS011;8503;52.472;13.344;2022-08-21T06:55:38;5.13;;;1.50;;
16770;SDS011;8503;52.472;13.344;2022-08-21T06:57:22;6.32;;;1.67;;
16770;SDS011;8503;52.472;13.344;2022-08-21T06:59:05;5.28;;;1.85;;
16770;SDS011;8503;52.472;13.344;2022-08-21T07:00:48;2.60;;;1.50;;
16770;SDS011;8503;52.472;13.344;2022-08-21T07:02:32;11.25;;;1.63;;
16770;SDS011;8503;52.472;13.344;2022-08-21T07:04:20;3.85;;;1.55;;
16770;SDS011;8503;52.472;13.344;2022-08-21T07:06:03;4.90;;;1.70;;
16770;SDS011;8503;52.472;13.344;2022-08-21T07:07:46;6.00;;;1.60;;
16770;SDS011;8503;52.472;13.344;2022-08-21T07:09:28;3.22;;;1.33;;
16770;SDS011;8503;52.472;13.344;2022-08-21T07:11:11;7.68;;;1.88;;
16770;SDS011;8503;52.472;13.344;2022-08-21T07:12:55;5.40;;;1.75;;
16770;SDS011;8503;52.472;13.344;2022-08-21T07:14:40;6.75;;;1.50;;
16770;SDS011;8503;52.472;13.344;2022-08-21T07:16:22;4.57;;;1.75;;
16770;SDS011;8503;52.472;13.344;2022-08-21T07:18:06;3.50;;;1.27;;
16770;SDS011;8503;52.472;13.344;2022-08-21T07:19:48;5.75;;;1.30;;
16770;SDS011;8503;52.472;13.344;2022-08-21T07:21:31;3.30;;;1.23;;
16770;SDS011;8503;52.472;13.344;2022-08-21T07:23:15;4.95;;;1.45;;
16770;SDS011;8503;52.472;13.344;2022-08-21T07:25:02;2.25;;;1.13;;
16770;SDS011;8503;52.472;13.344;2022-08-21T07:26:45;5.57;;;1.52;;
16770;SDS011;8503;52.472;13.344;2022-08-21T07:28:28;2.28;;;1.40;;
16770;SDS011;8503;52.472;13.344;2022-08-21T07:30:10;3.40;;;1.40;;
16770;SDS011;8503;52.472;13.344;2022-08-21T07:31:53;8.00;;;1.40;;
16770;SDS011;8503;52.472;13.344;2022-08-21T07:33:36;2.45;;;1.50;;
16770;SDS011;8503;52.472;13.344;2022-08-21T07:35:18;5.57;;;1.25;;
16770;SDS011;8503;52.472;13.344;2022-08-21T07:37:01;7.43;;;1.63;;
16770;SDS011;8503;52.472;13.344;2022-08-21T07:38:49;4.75;;;1.70;;
16770;SDS011;8503;52.472;13.344;2022-08-21T07:40:31;3.13;;;1.33;;
16770;SDS011;8503;52.472;13.344;2022-08-21T07:42:14;3.83;;;1.45;;
16770;SDS011;8503;52.472;13.344;2022-08-21T07:43:56;3.30;;;1.17;;
16770;SDS011;8503;52.472;13.344;2022-08-21T07:45:39;3.40;;;1.55;;
16770;SDS011;8503;52.472;13.344;2022-08-21T07:47:21;3.85;;;1.33;;
16770;SDS011;8503;52.472;13.344;2022-08-21T07:49:22;3.88;;;1.33;;
16770;SDS011;8503;52.472;13.344;2022-08-21T07:51:06;2.15;;;1.38;;
16770;SDS011;8503;52.472;13.344;2022-08-21T07:52:49;6.72;;;1.60;;
16770;SDS011;8503;52.472;13.344;2022-08-21T07:54:31;2.75;;;1.20;;
16770;SDS011;8503;52.472;13.344;2022-08-21T07:56:13;2.42;;;1.25;;
16770;SDS011;8503;52.472;13.344;2022-08-21T07:57:56;4.40;;;1.52;;
16770;SDS011;8503;52.472;13.344;2022-08-21T07:59:38;5.13;;;1.48;;
16770;SDS011;8503;52.472;13.344;2022-08-21T08:01:21;4.28;;;1.30;;
16770;SDS011;8503;52.472;13.344;2022-08-21T08:03:04;3.80;;;1.55;;
16770;SDS011;8503;52.472;13.344;2022-08-21T08:04:48;3.17;;;1.73;;
16770;SDS011;8503;52.472;13.344;2022-08-21T08:06:30;3.63;;;1.42;;
16770;SDS011;8503;52.472;13.344;2022-08-21T08:08:12;4.20;;;1.85;;
16770;SDS011;8503;52.472;13.344;2022-08-21T08:09:54;3.33;;;1.38;;
16770;SDS011;8503;52.472;13.344;2022-08-21T08:11:37;2.92;;;1.48;;
16770;SDS011;8503;52.472;13.344;2022-08-21T08:13:23;4.88;;;1.98;;
16770;SDS011;8503;52.472;13.344;2022-08-21T08:15:06;3.88;;;1.67;;
16770;SDS011;8503;52.472;13.344;2022-08-21T08:16:50;3.38;;;1.70;;
16770;SDS011;8503;52.472;13.344;2022-08-21T08:18:32;8.52;;;1.73;;
16770;SDS011;8503;52.472;13.344;2022-08-21T08:20:16;6.30;;;1.83;;
16770;SDS011;8503;52.472;13.344;2022-08-21T08:21:59;8.57;;;2.00;;
16770;SDS011;8503;52.472;13.344;2022-08-21T08:23:41;4.57;;;1.77;;
16770;SDS011;8503;52.472;13.344;2022-08-21T08:25:25;2.88;;;1.42;;
16770;SDS011;8503;52.472;13.344;2022-08-21T08:27:15;4.05;;;1.98;;
16770;SDS011;8503;52.472;13.344;2022-08-21T08:28:57;3.67;;;1.70;;
16770;SDS011;8503;52.472;13.344;2022-08-21T08:30:39;6.22;;;2.03;;
16770;SDS011;8503;52.472;13.344;2022-08-21T08:32:22;4.90;;;2.05;;
16770;SDS011;8503;52.472;13.344;2022-08-21T08:34:04;3.22;;;1.65;;
16770;SDS011;8503;52.472;13.344;2022-08-21T08:35:48;6.03;;;1.88;;
16770;SDS011;8503;52.472;13.344;2022-08-21T08:37:32;9.02;;;2.05;;
16770;SDS011;8503;52.472;13.344;2022-08-21T08:39:19;6.40;;;2.30;;
16770;SDS011;8503;52.472;13.344;2022-08-21T08:41:10;6.85;;;2.15;;
16770;SDS011;8503;52.472;13.344;2022-08-21T08:42:54;6.05;;;1.70;;
16770;SDS011;8503;52.472;13.344;2022-08-21T08:44:36;6.95;;;3.70;;
16770;SDS011;8503;52.472;13.344;2022-08-21T08:46:20;4.20;;;1.73;;
16770;SDS011;8503;52.472;13.344;2022-08-21T08:48:08;5.13;;;2.00;;
16770;SDS011;8503;52.472;13.344;2022-08-21T08:49:55;3.85;;;1.48;;
16770;SDS011;8503;52.472;13.344;2022-08-21T08:51:44;4.45;;;1.73;;
16770;SDS011;8503;52.472;13.344;2022-08-21T08:53:32;6.00;;;2.20;;
16770;SDS011;8503;52.472;13.344;2022-08-21T08:55:19;3.40;;;1.35;;
16770;SDS011;8503;52.472;13.344;2022-08-21T08:57:09;8.18;;;2.00;;
16770;SDS011;8503;52.472;13.344;2022-08-21T08:58:56;4.53;;;1.70;;
16770;SDS011;8503;52.472;13.344;2022-08-21T09:00:43;7.53;;;2.33;;
16770;SDS011;8503;52.472;13.344;2022-08-21T09:02:26;4.05;;;1.70;;
16770;SDS011;8503;52.472;13.344;2022-08-21T09:04:09;6.43;;;1.77;;
16770;SDS011;8503;52.472;13.344;2022-08-21T09:05:54;5.80;;;1.80;;
16770;SDS011;8503;52.472;13.344;2022-08-21T09:07:43;6.55;;;1.90;;
16770;SDS011;8503;52.472;13.344;2022-08-21T09:09:33;7.05;;;1.88;;
16770;SDS011;8503;52.472;13.344;2022-08-21T09:11:22;5.10;;;2.22;;
16770;SDS011;8503;52.472;13.344;2022-08-21T09:13:11;7.40;;;1.85;;
16770;SDS011;8503;52.472;13.344;2022-08-21T09:14:58;8.70;;;1.95;;
16770;SDS011;8503;52.472;13.344;2022-08-21T09:16:47;8.45;;;2.10;;
16770;SDS011;8503;52.472;13.344;2022-08-21T09:18:37;7.68;;;2.05;;
16770;SDS011;8503;52.472;13.344;2022-08-21T09:20:29;5.72;;;1.65;;
16770;SDS011;8503;52.472;13.344;2022-08-21T09:22:16;9.35;;;2.22;;
16770;SDS011;8503;52.472;13.344;2022-08-21T09:24:22;11.57;;;1.90;;
16770;SDS011;8503;52.472;13.344;2022-08-21T09:26:12;4.57;;;1.58;;
16770;SDS011;8503;52.472;13.344;2022-08-21T09:27:56;5.57;;;1.95;;
16770;SDS011;8503;52.472;13.344;2022-08-21T09:29:40;4.93;;;1.55;;
16770;SDS011;8503;52.472;13.344;2022-08-21T09:31:25;5.70;;;1.63;;
16770;SDS011;8503;52.472;13.344;2022-08-21T09:33:08;4.32;;;1.60;;
16770;SDS011;8503;52.472;13.344;2022-08-21T09:34:57;4.63;;;2.05;;
16770;SDS011;8503;52.472;13.344;2022-08-21T09:36:44;3.47;;;1.40;;
16770;SDS011;8503;52.472;13.344;2022-08-21T09:38:29;6.20;;;1.80;;
16770;SDS011;8503;52.472;13.344;2022-08-21T09:40:19;3.72;;;1.70;;
16770;SDS011;8503;52.472;13.344;2022-08-21T09:42:07;9.27;;;2.08;;
16770;SDS011;8503;52.472;13.344;2022-08-21T09:43:52;4.72;;;2.00;;
16770;SDS011;8503;52.472;13.344;2022-08-21T09:45:35;3.17;;;1.63;;
16770;SDS011;8503;52.472;13.344;2022-08-21T09:47:18;5.40;;;1.65;;
16770;SDS011;8503;52.472;13.344;2022-08-21T09:49:05;3.55;;;1.63;;
16770;SDS011;8503;52.472;13.344;2022-08-21T09:51:05;4.38;;;1.60;;
16770;SDS011;8503;52.472;13.344;2022-08-21T09:52:48;7.43;;;1.60;;
16770;SDS011;8503;52.472;13.344;2022-08-21T09:54:35;7.45;;;1.95;;
16770;SDS011;8503;52.472;13.344;2022-08-21T09:56:25;4.15;;;1.70;;
16770;SDS011;8503;52.472;13.344;2022-08-21T09:58:30;7.70;;;1.75;;
16770;SDS011;8503;52.472;13.344;2022-08-21T10:00:15;3.88;;;2.00;;
16770;SDS011;8503;52.472;13.344;2022-08-21T10:02:03;3.72;;;1.73;;
16770;SDS011;8503;52.472;13.344;2022-08-21T10:04:04;8.82;;;1.77;;
16770;SDS011;8503;52.472;13.344;2022-08-21T10:05:51;4.55;;;1.70;;
16770;SDS011;8503;52.472;13.344;2022-08-21T10:07:36;4.97;;;1.70;;
16770;SDS011;8503;52.472;13.344;2022-08-21T10:09:20;10.43;;;2.03;;
16770;SDS011;8503;52.472;13.344;2022-08-21T10:11:02;4.50;;;1.70;;
16770;SDS011;8503;52.472;13.344;2022-08-21T10:12:50;5.82;;;1.60;;
16770;SDS011;8503;52.472;13.344;2022-08-21T10:14:39;4.25;;;1.60;;
16770;SDS011;8503;52.472;13.344;2022-08-21T10:16:28;5.57;;;1.65;;
16770;SDS011;8503;52.472;13.344;2022-08-21T10:18:14;5.18;;;1.83;;
16770;SDS011;8503;52.472;13.344;2022-08-21T10:20:03;3.95;;;1.50;;
16770;SDS011;8503;52.472;13.344;2022-08-21T10:21:50;4.65;;;1.67;;
16770;SDS011;8503;52.472;13.344;2022-08-21T10:23:49;4.70;;;1.90;;
16770;SDS011;8503;52.472;13.344;2022-08-21T10:25:37;5.65;;;1.70;;
16770;SDS011;8503;52.472;13.344;2022-08-21T10:27:38;6.15;;;1.85;;
16770;SDS011;8503;52.472;13.344;2022-08-21T10:29:31;3.95;;;1.73;;